Time;durP1;ratioP1;P1;durP2;ratioP2;P2;SDS_P1;SDS_P2;PMS_P1;PMS_P2;Temp;Humidity;BMP_temperature;BMP_pressure;BME280_temperature;BME280_humidity;BME280_pressure;Samples;Min_cycle;Max_cycle;Signal;HPM_P1;HPM_P2
2023/10/04 00:01:54;;;;;;;;;;;22.50;58.60;;;;;;1545604;75;1945;-57
2023/10/04 00:03:56;;;;;;;;;;;22.50;58.10;;;;;;1550541;75;653;-59
2023/10/04 00:05:59;;;;;;;;;;;22.40;57.10;;;;;;1551635;75;787;-59
2023/10/04 00:08:01;;;;;;;;;;;22.50;57.50;;;;;;1550448;75;693;-61
2023/10/04 00:10:05;;;;;;;;;;;22.50;56.80;;;;;;1549840;75;1578;-59
2023/10/04 00:12:08;;;;;;;;;;;22.40;56.60;;;;;;1549620;76;1503;-60
2023/10/04 00:14:10;;;;;;;;;;;22.50;56.60;;;;;;1551485;75;657;-59
2023/10/04 00:16:13;;;;;;;;;;;22.50;56.80;;;;;;1548919;75;718;-59
2023/10/04 00:18:19;;;;;;;;;;;22.50;56.80;;;;;;1549289;75;739;-61
2023/10/04 00:20:18;;;;;;;;;;;22.50;56.20;;;;;;1548938;75;1610;-62
2023/10/04 00:22:22;;;;;;;;;;;22.50;56.00;;;;;;1549134;75;1925;-58
2023/10/04 00:24:23;;;;;;;;;;;22.40;56.00;;;;;;1539866;75;1648;-60
2023/10/04 00:26:25;;;;;;;;;;;22.50;56.40;;;;;;1545220;75;739;-59
2023/10/04 00:28:29;;;;;;;;;;;22.50;56.60;;;;;;1538581;75;698;-60
2023/10/04 00:30:31;;;;;;;;;;;22.50;56.70;;;;;;1547597;75;1173;-58
2023/10/04 00:32:34;;;;;;;;;;;22.50;56.80;;;;;;1552014;75;754;-60
2023/10/04 00:34:39;;;;;;;;;;;22.50;56.40;;;;;;1553413;75;786;-59
2023/10/04 00:36:40;;;;;;;;;;;22.50;56.00;;;;;;1547862;75;1722;-62
2023/10/04 00:38:41;;;;;;;;;;;22.50;56.40;;;;;;1546244;75;1473;-62
2023/10/04 00:40:43;;;;;;;;;;;22.50;56.70;;;;;;1545134;75;1173;-59
2023/10/04 00:42:49;;;;;;;;;;;22.50;56.70;;;;;;1546970;75;1899;-60
2023/10/04 00:44:51;;;;;;;;;;;22.50;56.90;;;;;;1545378;75;714;-58
2023/10/04 00:46:53;;;;;;;;;;;22.50;56.80;;;;;;1549245;75;684;-58
2023/10/04 00:48:55;;;;;;;;;;;22.50;56.50;;;;;;1548904;75;796;-59
2023/10/04 00:50:59;;;;;;;;;;;22.50;56.50;;;;;;1549634;75;1155;-59
2023/10/04 00:53:05;;;;;;;;;;;22.50;56.30;;;;;;1539906;75;1577;-58
2023/10/04 00:55:07;;;;;;;;;;;22.50;56.20;;;;;;1540123;75;746;-59
2023/10/04 00:57:13;;;;;;;;;;;22.50;56.10;;;;;;1539013;75;723;-62
2023/10/04 00:59:16;;;;;;;;;;;22.40;55.70;;;;;;1547256;75;722;-61
2023/10/04 01:01:18;;;;;;;;;;;22.50;55.70;;;;;;1544740;75;1138;-59
2023/10/04 01:03:24;;;;;;;;;;;22.50;55.70;;;;;;1547021;75;1932;-60
2023/10/04 01:05:25;;;;;;;;;;;22.50;55.50;;;;;;1538839;75;1642;-59
2023/10/04 01:07:27;;;;;;;;;;;22.40;55.50;;;;;;1549672;75;818;-58
2023/10/04 01:09:29;;;;;;;;;;;22.50;55.50;;;;;;1547024;75;736;-58
2023/10/04 01:11:35;;;;;;;;;;;22.50;55.70;;;;;;1543664;75;1142;-60
2023/10/04 01:13:38;;;;;;;;;;;22.50;55.90;;;;;;1547728;75;665;-57
2023/10/04 01:15:41;;;;;;;;;;;22.50;55.20;;;;;;1542485;75;735;-60
2023/10/04 01:17:43;;;;;;;;;;;22.50;55.20;;;;;;1543436;75;746;-59
2023/10/04 01:19:45;;;;;;;;;;;22.50;55.50;;;;;;1541723;75;1549;-59
2023/10/04 01:21:47;;;;;;;;;;;22.50;55.10;;;;;;1546787;75;1942;-59
2023/10/04 01:23:49;;;;;;;;;;;22.40;55.20;;;;;;1550566;75;738;-58
2023/10/04 01:25:51;;;;;;;;;;;22.40;55.90;;;;;;1558859;75;590;-61
2023/10/04 01:27:54;;;;;;;;;;;22.50;55.20;;;;;;1548625;75;795;-58
2023/10/04 01:29:56;;;;;;;;;;;22.50;55.00;;;;;;1551016;75;958;-58
2023/10/04 01:31:57;;;;;;;;;;;22.50;55.30;;;;;;1548894;75;1149;-59
2023/10/04 01:33:59;;;;;;;;;;;22.50;54.90;;;;;;1540628;75;1550;-58
2023/10/04 01:36:01;;;;;;;;;;;22.50;55.00;;;;;;1542441;75;722;-61
2023/10/04 01:38:06;;;;;;;;;;;22.50;55.00;;;;;;1546876;76;764;-58
2023/10/04 01:40:12;;;;;;;;;;;22.50;55.40;;;;;;1543540;75;1607;-59
2023/10/04 01:42:11;;;;;;;;;;;22.50;54.90;;;;;;1547402;75;1929;-59
2023/10/04 01:44:14;;;;;;;;;;;22.50;55.00;;;;;;1543286;75;719;-59
2023/10/04 01:46:16;;;;;;;;;;;22.40;54.10;;;;;;1548543;75;747;-58
2023/10/04 01:48:21;;;;;;;;;;;22.40;54.10;;;;;;1548376;75;1362;-60
2023/10/04 01:50:24;;;;;;;;;;;22.40;54.60;;;;;;1550791;75;1180;-58
2023/10/04 01:52:26;;;;;;;;;;;22.50;54.40;;;;;;1547180;75;739;-57
2023/10/04 01:54:28;;;;;;;;;;;22.50;54.20;;;;;;1551423;75;688;-59
2023/10/04 01:56:29;;;;;;;;;;;22.50;54.20;;;;;;1546869;75;870;-59
2023/10/04 01:58:31;;;;;;;;;;;22.50;54.20;;;;;;1552939;75;763;-59
2023/10/04 02:00:34;;;;;;;;;;;22.50;54.00;;;;;;1547261;75;1130;-58
2023/10/04 02:02:42;;;;;;;;;;;22.40;53.90;;;;;;1553276;75;1923;-58
2023/10/04 02:04:41;;;;;;;;;;;22.50;53.90;;;;;;1548368;76;1692;-57
2023/10/04 02:06:43;;;;;;;;;;;22.50;53.70;;;;;;1554678;75;738;-58
2023/10/04 02:08:45;;;;;;;;;;;22.50;53.60;;;;;;1553940;75;748;-59
2023/10/04 02:10:47;;;;;;;;;;;22.50;53.70;;;;;;1555061;75;1163;-59
2023/10/04 02:12:50;;;;;;;;;;;22.40;53.60;;;;;;1546133;75;693;-59
2023/10/04 02:14:53;;;;;;;;;;;22.50;54.00;;;;;;1547862;75;820;-59
2023/10/04 02:16:55;;;;;;;;;;;22.40;53.30;;;;;;1550074;76;1262;-58
2023/10/04 02:18:57;;;;;;;;;;;22.50;53.40;;;;;;1550895;75;698;-58
2023/10/04 02:20:59;;;;;;;;;;;22.50;53.80;;;;;;1546578;75;1206;-58
2023/10/04 02:23:04;;;;;;;;;;;22.40;53.10;;;;;;1548517;75;1900;-60
2023/10/04 02:25:13;;;;;;;;;;;22.40;53.30;;;;;;1552781;75;1943;-59
2023/10/04 02:27:09;;;;;;;;;;;22.50;53.20;;;;;;1548764;75;1647;-60
2023/10/04 02:29:12;;;;;;;;;;;22.50;53.30;;;;;;1545758;75;768;-63
2023/10/04 02:31:14;;;;;;;;;;;22.50;53.10;;;;;;1548043;75;1575;-58
2023/10/04 02:33:16;;;;;;;;;;;22.40;52.90;;;;;;1552483;76;732;-58
2023/10/04 02:35:26;;;;;;;;;;;22.40;52.60;;;;;;1549711;75;666;-57
2023/10/04 02:37:27;;;;;;;;;;;22.40;52.70;;;;;;1550518;75;1083;-58
2023/10/04 02:39:30;;;;;;;;;;;22.40;52.60;;;;;;1552800;75;1509;-58
2023/10/04 02:41:31;;;;;;;;;;;22.40;52.80;;;;;;1553190;75;1170;-61
2023/10/04 02:43:33;;;;;;;;;;;22.40;52.70;;;;;;1551851;75;1937;-58
2023/10/04 02:45:36;;;;;;;;;;;22.40;52.70;;;;;;1545998;75;1534;-59
2023/10/04 02:47:38;;;;;;;;;;;22.40;52.40;;;;;;1549610;75;789;-58
2023/10/04 02:49:42;;;;;;;;;;;22.40;52.30;;;;;;1552482;75;738;-58
2023/10/04 02:51:48;;;;;;;;;;;22.40;52.60;;;;;;1547048;75;1150;-59
2023/10/04 02:53:47;;;;;;;;;;;22.50;53.10;;;;;;1549598;75;1590;-59
2023/10/04 02:55:58;;;;;;;;;;;22.40;53.20;;;;;;1545657;75;769;-58
2023/10/04 02:57:53;;;;;;;;;;;22.40;53.10;;;;;;1546362;75;1563;-60
2023/10/04 02:59:55;;;;;;;;;;;22.40;52.90;;;;;;1545011;75;766;-60
2023/10/04 03:01:57;;;;;;;;;;;22.40;52.80;;;;;;1548838;75;1126;-59
2023/10/04 03:03:59;;;;;;;;;;;22.40;53.20;;;;;;1550631;75;1971;-57
2023/10/04 03:06:01;;;;;;;;;;;22.50;53.50;;;;;;1551311;75;860;-57
2023/10/04 03:08:09;;;;;;;;;;;22.40;52.90;;;;;;1548258;75;749;-59
2023/10/04 03:10:12;;;;;;;;;;;22.40;53.10;;;;;;1553509;75;686;-60
2023/10/04 03:12:15;;;;;;;;;;;22.40;55.10;;;;;;1549520;75;1537;-60
2023/10/04 03:14:17;;;;;;;;;;;22.40;54.30;;;;;;1550891;75;750;-59
2023/10/04 03:16:20;;;;;;;;;;;22.40;55.10;;;;;;1546019;75;785;-58
2023/10/04 03:18:25;;;;;;;;;;;22.40;53.60;;;;;;1547288;75;759;-58
2023/10/04 03:20:30;;;;;;;;;;;22.40;54.00;;;;;;1545620;75;1579;-59
2023/10/04 03:22:29;;;;;;;;;;;22.40;52.80;;;;;;1542050;75;1927;-59
2023/10/04 03:24:31;;;;;;;;;;;22.40;53.00;;;;;;1544993;75;744;-58
2023/10/04 03:26:33;;;;;;;;;;;22.40;52.60;;;;;;1547097;75;1520;-63
2023/10/04 03:28:37;;;;;;;;;;;22.40;52.40;;;;;;1556198;75;692;-60
2023/10/04 03:30:39;;;;;;;;;;;22.50;53.10;;;;;;1547116;75;1629;-59
2023/10/04 03:32:43;;;;;;;;;;;22.40;52.90;;;;;;1549918;75;760;-60
2023/10/04 03:34:45;;;;;;;;;;;22.40;52.60;;;;;;1544649;75;1084;-59
2023/10/04 03:36:47;;;;;;;;;;;22.40;52.30;;;;;;1543554;75;787;-58
2023/10/04 03:38:49;;;;;;;;;;;22.40;52.30;;;;;;1547681;75;771;-61
2023/10/04 03:40:55;;;;;;;;;;;22.40;52.80;;;;;;1555271;75;1525;-58
2023/10/04 03:42:54;;;;;;;;;;;22.40;52.90;;;;;;1547149;75;1946;-58
2023/10/04 03:44:57;;;;;;;;;;;22.40;53.10;;;;;;1547886;75;812;-58
2023/10/04 03:47:00;;;;;;;;;;;22.40;53.10;;;;;;1547776;75;665;-58
2023/10/04 03:49:02;;;;;;;;;;;22.40;52.40;;;;;;1549917;75;750;-58
2023/10/04 03:51:04;;;;;;;;;;;22.40;52.30;;;;;;1549897;75;1182;-59
2023/10/04 03:53:06;;;;;;;;;;;22.40;52.10;;;;;;1551180;75;734;-59
2023/10/04 03:55:08;;;;;;;;;;;22.40;52.60;;;;;;1546521;75;1355;-60
2023/10/04 03:57:12;;;;;;;;;;;22.40;51.80;;;;;;1550463;75;763;-57
2023/10/04 03:59:16;;;;;;;;;;;22.40;52.30;;;;;;1553284;75;1761;-59
2023/10/04 04:01:17;;;;;;;;;;;22.40;52.50;;;;;;1550647;75;1620;-58
2023/10/04 04:03:19;;;;;;;;;;;22.40;51.90;;;;;;1551098;75;1903;-58
2023/10/04 04:05:23;;;;;;;;;;;22.40;51.80;;;;;;1547424;75;721;-59
2023/10/04 04:07:26;;;;;;;;;;;22.40;51.90;;;;;;1548503;75;751;-59
2023/10/04 04:09:28;;;;;;;;;;;22.40;51.60;;;;;;1555138;75;1197;-59
2023/10/04 04:11:31;;;;;;;;;;;22.40;52.30;;;;;;1548532;75;1174;-59
2023/10/04 04:13:34;;;;;;;;;;;22.40;51.60;;;;;;1544950;75;688;-58
2023/10/04 04:15:36;;;;;;;;;;;22.40;52.00;;;;;;1556020;75;742;-60
2023/10/04 04:17:39;;;;;;;;;;;22.40;51.50;;;;;;1545818;75;688;-58
2023/10/04 04:19:41;;;;;;;;;;;22.40;51.50;;;;;;1552041;75;753;-57
2023/10/04 04:21:43;;;;;;;;;;;22.40;50.80;;;;;;1548139;75;1188;-59
2023/10/04 04:23:46;;;;;;;;;;;22.40;51.00;;;;;;1555405;75;1914;-60
2023/10/04 04:26:07;;;;;;;;;;;22.40;50.50;;;;;;1543921;75;677;-58
2023/10/04 04:28:12;;;;;;;;;;;22.40;50.60;;;;;;1555005;75;709;-59
2023/10/04 04:30:23;;;;;;;;;;;22.30;51.20;;;;;;1540511;75;1432;-58
2023/10/04 04:32:17;;;;;;;;;;;22.40;51.10;;;;;;1561072;75;1463;-58
2023/10/04 04:34:19;;;;;;;;;;;22.30;50.40;;;;;;1568186;75;745;-57
2023/10/04 04:36:34;;;;;;;;;;;22.40;50.40;;;;;;1556278;75;1552;-53
2023/10/04 04:38:28;;;;;;;;;;;22.40;50.90;;;;;;1566592;75;1492;-58
2023/10/04 04:40:30;;;;;;;;;;;22.40;50.70;;;;;;1559029;75;1184;-59
2023/10/04 04:42:35;;;;;;;;;;;22.40;50.90;;;;;;1561363;75;908;-60
2023/10/04 04:44:40;;;;;;;;;;;22.40;50.40;;;;;;1563065;75;1943;-57
2023/10/04 04:46:39;;;;;;;;;;;22.40;50.50;;;;;;1559753;75;1637;-59
2023/10/04 04:48:41;;;;;;;;;;;22.40;50.20;;;;;;1565371;75;742;-59
2023/10/04 04:50:43;;;;;;;;;;;22.30;49.90;;;;;;1563294;75;1522;-59
2023/10/04 04:52:45;;;;;;;;;;;22.30;50.00;;;;;;1559116;75;702;-60
2023/10/04 04:54:47;;;;;;;;;;;22.30;49.90;;;;;;1562779;75;757;-59
2023/10/04 04:56:49;;;;;;;;;;;22.30;49.90;;;;;;1567068;75;758;-59
2023/10/04 04:58:52;;;;;;;;;;;22.30;51.60;;;;;;1557893;75;885;-59
2023/10/04 05:01:00;;;;;;;;;;;22.30;52.00;;;;;;1564334;75;1102;-58
2023/10/04 05:03:04;;;;;;;;;;;22.40;52.20;;;;;;1553552;75;1698;-61
2023/10/04 05:05:07;;;;;;;;;;;22.40;53.20;;;;;;1565140;75;1448;-58
2023/10/04 05:07:11;;;;;;;;;;;22.40;52.40;;;;;;1560337;75;714;-62
2023/10/04 05:09:12;;;;;;;;;;;22.40;51.80;;;;;;1551939;75;1414;-58
2023/10/04 05:11:14;;;;;;;;;;;22.30;51.90;;;;;;1567674;75;1158;-57
2023/10/04 05:13:18;;;;;;;;;;;22.30;51.00;;;;;;1559434;75;762;-59
2023/10/04 05:15:31;;;;;;;;;;;22.30;50.70;;;;;;1565356;75;721;-59
2023/10/04 05:17:30;;;;;;;;;;;22.40;50.40;;;;;;1558783;75;1153;-58
2023/10/04 05:19:30;;;;;;;;;;;22.40;50.20;;;;;;1558301;75;1641;-60
2023/10/04 05:21:32;;;;;;;;;;;22.20;50.30;;;;;;1559683;75;1183;-60
2023/10/04 05:23:34;;;;;;;;;;;22.30;49.70;;;;;;1562307;75;1934;-60
2023/10/04 05:25:36;;;;;;;;;;;22.30;49.60;;;;;;1557007;75;817;-58
2023/10/04 05:27:38;;;;;;;;;;;22.30;49.40;;;;;;1568348;75;875;-58
2023/10/04 05:29:40;;;;;;;;;;;22.30;49.40;;;;;;1553061;75;756;-59
2023/10/04 05:31:42;;;;;;;;;;;22.30;49.30;;;;;;1558039;75;1155;-58
2023/10/04 05:33:44;;;;;;;;;;;22.30;49.20;;;;;;1563979;75;1300;-59
2023/10/04 05:35:47;;;;;;;;;;;22.30;49.60;;;;;;1565523;75;770;-58
2023/10/04 05:37:49;;;;;;;;;;;22.30;49.70;;;;;;1563868;75;794;-58
2023/10/04 05:39:51;;;;;;;;;;;22.30;49.70;;;;;;1563490;75;667;-60
2023/10/04 05:41:54;;;;;;;;;;;22.40;49.30;;;;;;1561248;75;1148;-60
2023/10/04 05:43:56;;;;;;;;;;;22.30;49.40;;;;;;1562195;75;1914;-60
2023/10/04 05:45:59;;;;;;;;;;;22.30;49.50;;;;;;1541652;75;797;-58
2023/10/04 05:48:01;;;;;;;;;;;22.20;49.10;;;;;;1548258;75;1550;-58
2023/10/04 05:50:05;;;;;;;;;;;22.30;49.20;;;;;;1553496;75;765;-61
2023/10/04 05:52:06;;;;;;;;;;;22.20;49.10;;;;;;1553979;75;1511;-58
2023/10/04 05:54:08;;;;;;;;;;;22.20;49.10;;;;;;1560082;75;729;-59
2023/10/04 05:56:10;;;;;;;;;;;22.20;49.00;;;;;;1559190;75;789;-59
2023/10/04 05:58:12;;;;;;;;;;;22.30;48.90;;;;;;1560920;75;868;-58
2023/10/04 06:00:24;;;;;;;;;;;22.30;49.20;;;;;;1555873;75;1087;-61
2023/10/04 06:02:18;;;;;;;;;;;22.30;49.40;;;;;;1558974;75;1628;-61
2023/10/04 06:04:20;;;;;;;;;;;22.30;49.30;;;;;;1558769;75;1930;-59
2023/10/04 06:06:23;;;;;;;;;;;22.20;49.00;;;;;;1561519;75;843;-60
2023/10/04 06:08:24;;;;;;;;;;;22.20;49.10;;;;;;1554920;75;751;-59
2023/10/04 06:10:26;;;;;;;;;;;22.30;49.20;;;;;;1567770;75;1127;-59
2023/10/04 06:12:28;;;;;;;;;;;22.20;48.90;;;;;;1564462;75;773;-59
2023/10/04 06:14:30;;;;;;;;;;;22.30;49.20;;;;;;1558958;75;710;-57
2023/10/04 06:16:32;;;;;;;;;;;22.30;49.50;;;;;;1556771;75;1517;-58
2023/10/04 06:18:34;;;;;;;;;;;22.30;49.70;;;;;;1560435;75;748;-58
2023/10/04 06:20:36;;;;;;;;;;;22.20;49.20;;;;;;1560675;75;1151;-59
2023/10/04 06:22:38;;;;;;;;;;;22.30;49.60;;;;;;1558649;75;710;-59
2023/10/04 06:24:40;;;;;;;;;;;22.30;49.60;;;;;;1556931;75;1930;-58
2023/10/04 06:26:42;;;;;;;;;;;22.30;49.40;;;;;;1559400;75;718;-62
2023/10/04 06:28:44;;;;;;;;;;;22.30;49.70;;;;;;1559522;75;819;-58
2023/10/04 06:30:48;;;;;;;;;;;22.30;49.60;;;;;;1554229;75;1841;-59
2023/10/04 06:32:50;;;;;;;;;;;22.30;49.60;;;;;;1559235;75;1663;-58
2023/10/04 06:34:52;;;;;;;;;;;22.30;49.70;;;;;;1559794;75;731;-59
2023/10/04 06:36:54;;;;;;;;;;;22.30;49.90;;;;;;1558259;74;702;-59
2023/10/04 06:38:56;;;;;;;;;;;22.30;49.70;;;;;;1557175;75;635;-59
2023/10/04 06:40:57;;;;;;;;;;;22.30;50.00;;;;;;1555432;75;1199;-60
2023/10/04 06:43:00;;;;;;;;;;;22.30;50.10;;;;;;1560038;75;1316;-58
2023/10/04 06:45:02;;;;;;;;;;;22.30;49.40;;;;;;1558784;75;1915;-59
2023/10/04 06:47:05;;;;;;;;;;;22.30;49.60;;;;;;1561088;75;727;-60
2023/10/04 06:49:07;;;;;;;;;;;22.30;49.80;;;;;;1567362;75;696;-57
2023/10/04 06:51:10;;;;;;;;;;;22.20;49.80;;;;;;1558900;75;1120;-58
2023/10/04 06:53:12;;;;;;;;;;;22.30;50.00;;;;;;1560713;75;869;-57
2023/10/04 06:55:14;;;;;;;;;;;22.30;50.10;;;;;;1556998;75;669;-58
2023/10/04 06:57:17;;;;;;;;;;;22.30;50.40;;;;;;1566440;75;1549;-60
2023/10/04 06:59:19;;;;;;;;;;;22.30;50.70;;;;;;1570163;75;690;-59
2023/10/04 07:01:21;;;;;;;;;;;22.30;50.60;;;;;;1567068;75;1147;-57
2023/10/04 07:03:26;;;;;;;;;;;22.30;50.70;;;;;;1560133;75;717;-57
2023/10/04 07:05:29;;;;;;;;;;;22.30;51.00;;;;;;1558841;75;1931;-59
2023/10/04 07:07:31;;;;;;;;;;;22.40;53.40;;;;;;1557489;75;1001;-60
2023/10/04 07:09:33;;;;;;;;;;;22.50;53.00;;;;;;1554513;75;731;-58
2023/10/04 07:11:35;;;;;;;;;;;22.40;51.90;;;;;;1549694;75;1568;-59
2023/10/04 07:13:36;;;;;;;;;;;22.40;54.40;;;;;;1550871;75;733;-60
2023/10/04 07:15:41;;;;;;;;;;;22.40;53.30;;;;;;1560755;75;829;-57
2023/10/04 07:17:43;;;;;;;;;;;22.40;53.20;;;;;;1549876;75;991;-62
2023/10/04 07:19:45;;;;;;;;;;;22.40;53.90;;;;;;1554210;75;697;-58
2023/10/04 07:21:47;;;;;;;;;;;22.40;54.20;;;;;;1555217;75;1149;-60
2023/10/04 07:23:49;;;;;;;;;;;22.40;54.30;;;;;;1552773;75;675;-59
2023/10/04 07:25:51;;;;;;;;;;;22.40;55.20;;;;;;1547762;75;1913;-58
2023/10/04 07:27:54;;;;;;;;;;;22.40;55.30;;;;;;1548990;75;728;-58
2023/10/04 07:29:55;;;;;;;;;;;22.40;55.40;;;;;;1549530;75;679;-60
2023/10/04 07:31:57;;;;;;;;;;;22.40;55.20;;;;;;1559064;75;1158;-59
2023/10/04 07:33:59;;;;;;;;;;;22.40;55.90;;;;;;1550271;75;728;-58
2023/10/04 07:36:01;;;;;;;;;;;22.40;56.10;;;;;;1555038;75;732;-59
2023/10/04 07:38:06;;;;;;;;;;;22.50;56.50;;;;;;1554985;75;670;-58
2023/10/04 07:40:14;;;;;;;;;;;22.50;57.00;;;;;;1552049;75;1504;-61
2023/10/04 07:42:12;;;;;;;;;;;22.40;57.30;;;;;;1561136;75;1645;-57
2023/10/04 07:44:14;;;;;;;;;;;22.50;57.10;;;;;;1549238;75;1935;-62
2023/10/04 07:46:16;;;;;;;;;;;22.50;57.60;;;;;;1553345;75;801;-61
2023/10/04 07:48:18;;;;;;;;;;;22.60;57.60;;;;;;1559041;75;743;-60
2023/10/04 07:50:23;;;;;;;;;;;22.60;57.80;;;;;;1553102;75;1192;-61
2023/10/04 07:52:23;;;;;;;;;;;22.60;57.70;;;;;;1553192;75;1524;-59
2023/10/04 07:54:25;;;;;;;;;;;22.60;57.80;;;;;;1549054;75;1460;-57
2023/10/04 07:56:28;;;;;;;;;;;22.60;57.90;;;;;;1558673;75;786;-62
2023/10/04 07:58:29;;;;;;;;;;;22.60;57.60;;;;;;1558534;75;721;-59
2023/10/04 08:00:33;;;;;;;;;;;22.60;57.30;;;;;;1547727;75;1138;-58
2023/10/04 08:02:35;;;;;;;;;;;22.60;57.30;;;;;;1546646;75;765;-58
2023/10/04 08:04:36;;;;;;;;;;;22.60;57.50;;;;;;1548427;75;1923;-61
2023/10/04 08:06:43;;;;;;;;;;;22.70;57.40;;;;;;1553544;75;698;-59
2023/10/04 08:08:45;;;;;;;;;;;22.60;57.40;;;;;;1552937;75;1702;-60
2023/10/04 08:10:47;;;;;;;;;;;22.70;57.30;;;;;;1559570;75;1135;-62
2023/10/04 08:12:51;;;;;;;;;;;22.70;57.10;;;;;;1549741;75;787;-57
2023/10/04 08:14:56;;;;;;;;;;;22.70;57.10;;;;;;1552432;75;1619;-60
2023/10/04 08:16:56;;;;;;;;;;;22.70;57.00;;;;;;1563582;75;1612;-60
2023/10/04 08:18:58;;;;;;;;;;;22.70;56.90;;;;;;1563189;75;775;-59
2023/10/04 08:21:06;;;;;;;;;;;22.70;56.80;;;;;;1550062;75;1138;-62
2023/10/04 08:23:08;;;;;;;;;;;22.60;56.40;;;;;;1558391;75;1567;-59
2023/10/04 08:25:12;;;;;;;;;;;22.70;56.40;;;;;;1562718;75;1901;-63
2023/10/04 08:27:16;;;;;;;;;;;22.80;56.30;;;;;;1546366;75;676;-59
2023/10/04 08:29:18;;;;;;;;;;;22.60;56.20;;;;;;1553765;75;792;-61
2023/10/04 08:31:20;;;;;;;;;;;22.80;56.30;;;;;;1560548;75;1154;-59
2023/10/04 08:33:31;;;;;;;;;;;22.70;56.30;;;;;;1554924;75;767;-58
2023/10/04 08:35:27;;;;;;;;;;;22.70;56.50;;;;;;1556574;75;1561;-61
2023/10/04 08:37:29;;;;;;;;;;;22.80;56.30;;;;;;1558905;75;714;-60
2023/10/04 08:39:33;;;;;;;;;;;22.70;56.30;;;;;;1552271;75;708;-60
2023/10/04 08:41:35;;;;;;;;;;;22.70;56.30;;;;;;1552001;75;1236;-59
2023/10/04 08:43:37;;;;;;;;;;;22.70;56.30;;;;;;1517708;77;728;-61
2023/10/04 08:45:39;;;;;;;;;;;22.70;56.40;;;;;;1548547;75;1913;-58
2023/10/04 08:47:41;;;;;;;;;;;22.70;56.30;;;;;;1549179;75;710;-59
2023/10/04 08:49:45;;;;;;;;;;;22.70;56.30;;;;;;1558255;75;1316;-57
2023/10/04 08:51:51;;;;;;;;;;;22.80;56.40;;;;;;1555915;75;1157;-62
2023/10/04 08:53:55;;;;;;;;;;;22.70;56.50;;;;;;1551566;75;748;-61
2023/10/04 08:55:59;;;;;;;;;;;22.70;56.40;;;;;;1551357;75;1847;-59
2023/10/04 08:58:01;;;;;;;;;;;22.70;56.50;;;;;;1553178;75;1172;-59
2023/10/04 09:00:10;;;;;;;;;;;22.70;56.40;;;;;;1551163;75;692;-61
2023/10/04 09:02:07;;;;;;;;;;;22.70;56.40;;;;;;1545530;75;1524;-59
2023/10/04 09:04:09;;;;;;;;;;;22.70;56.40;;;;;;1559842;75;1520;-60
2023/10/04 09:06:11;;;;;;;;;;;22.70;56.40;;;;;;1550070;75;1909;-58
2023/10/04 09:08:16;;;;;;;;;;;22.80;56.30;;;;;;1549064;75;751;-63
2023/10/04 09:10:18;;;;;;;;;;;22.70;56.30;;;;;;1556901;75;1345;-63
2023/10/04 09:12:19;;;;;;;;;;;22.80;56.40;;;;;;1552645;75;753;-61
2023/10/04 09:14:21;;;;;;;;;;;22.70;56.50;;;;;;1547504;75;673;-58
2023/10/04 09:16:25;;;;;;;;;;;22.70;56.40;;;;;;1547822;75;692;-59
2023/10/04 09:18:27;;;;;;;;;;;22.70;56.30;;;;;;1551727;75;1619;-59
2023/10/04 09:20:32;;;;;;;;;;;22.70;56.10;;;;;;1559623;75;1106;-62
2023/10/04 09:22:37;;;;;;;;;;;22.70;56.10;;;;;;1549797;75;645;-59
2023/10/04 09:24:45;;;;;;;;;;;22.70;56.10;;;;;;1516847;76;1676;-61
2023/10/04 09:26:56;;;;;;;;;;;22.70;56.00;;;;;;1549213;75;2009;-58
2023/10/04 09:28:58;;;;;;;;;;;22.70;56.00;;;;;;1554110;75;757;-62
2023/10/04 09:31:19;;;;;;;;;;;22.80;56.00;;;;;;1552066;75;1150;-60
2023/10/04 09:33:23;;;;;;;;;;;22.80;56.00;;;;;;1552791;75;1604;-61
2023/10/04 09:35:25;;;;;;;;;;;22.80;55.90;;;;;;1554598;75;1003;-60
2023/10/04 09:37:27;;;;;;;;;;;22.80;55.60;;;;;;1520720;76;1244;-59
2023/10/04 09:39:31;;;;;;;;;;;22.70;55.50;;;;;;1546105;75;679;-58
2023/10/04 09:41:34;;;;;;;;;;;22.70;55.60;;;;;;1552511;75;1677;-60
2023/10/04 09:43:36;;;;;;;;;;;22.70;55.70;;;;;;1545862;75;1720;-59
2023/10/04 09:45:38;;;;;;;;;;;22.70;55.70;;;;;;1550864;75;1916;-58
2023/10/04 09:47:40;;;;;;;;;;;22.80;55.60;;;;;;1552673;74;1649;-62
2023/10/04 09:49:43;;;;;;;;;;;22.80;55.60;;;;;;1552927;75;1239;-57
2023/10/04 09:51:50;;;;;;;;;;;22.70;55.60;;;;;;1546985;75;1969;-59
2023/10/04 09:53:49;;;;;;;;;;;22.80;55.60;;;;;;1549546;75;1614;-59
2023/10/04 09:55:51;;;;;;;;;;;22.80;55.60;;;;;;1557337;75;1268;-58
2023/10/04 09:57:53;;;;;;;;;;;22.80;55.60;;;;;;1551269;75;1218;-58
2023/10/04 09:59:55;;;;;;;;;;;22.80;55.80;;;;;;1541116;75;1480;-60
2023/10/04 10:01:57;;;;;;;;;;;22.80;55.70;;;;;;1541584;75;1207;-58
2023/10/04 10:04:09;;;;;;;;;;;22.80;55.80;;;;;;1542726;75;1125;-58
2023/10/04 10:06:09;;;;;;;;;;;22.80;55.80;;;;;;1551799;75;1926;-57
2023/10/04 10:08:12;;;;;;;;;;;22.70;55.70;;;;;;1556298;75;1430;-58
2023/10/04 10:10:16;;;;;;;;;;;22.70;55.70;;;;;;1555335;75;1384;-61
2023/10/04 10:12:17;;;;;;;;;;;22.80;55.70;;;;;;1549252;75;1694;-58
2023/10/04 10:14:21;;;;;;;;;;;22.80;55.70;;;;;;1543489;75;1605;-59
2023/10/04 10:16:23;;;;;;;;;;;22.80;55.70;;;;;;1544411;75;1254;-58
2023/10/04 10:18:27;;;;;;;;;;;22.80;55.70;;;;;;1551069;75;1361;-58
2023/10/04 10:20:29;;;;;;;;;;;22.80;55.60;;;;;;1542907;75;1354;-58
2023/10/04 10:22:32;;;;;;;;;;;22.80;55.60;;;;;;1551522;75;1136;-61
2023/10/04 10:24:34;;;;;;;;;;;22.70;55.60;;;;;;1553422;75;1373;-59
2023/10/04 10:26:36;;;;;;;;;;;22.80;55.60;;;;;;1545974;75;1913;-60
2023/10/04 10:28:38;;;;;;;;;;;22.70;55.60;;;;;;1552647;75;1501;-59
2023/10/04 10:30:40;;;;;;;;;;;22.80;55.60;;;;;;1544607;75;1150;-58
2023/10/04 10:32:56;;;;;;;;;;;22.80;55.60;;;;;;1555705;75;736;-58
2023/10/04 10:34:58;;;;;;;;;;;22.80;55.70;;;;;;1550342;75;1595;-59
2023/10/04 10:37:19;;;;;;;;;;;22.80;55.30;;;;;;1556456;75;689;-59
2023/10/04 10:39:21;;;;;;;;;;;22.80;55.50;;;;;;1556830;75;739;-57
2023/10/04 10:41:30;;;;;;;;;;;22.80;55.50;;;;;;1550396;75;1146;-59
2023/10/04 10:43:35;;;;;;;;;;;22.80;55.50;;;;;;1559144;75;1366;-59
2023/10/04 10:45:36;;;;;;;;;;;22.80;55.50;;;;;;1547698;75;1916;-62
2023/10/04 10:47:38;;;;;;;;;;;22.80;55.50;;;;;;1550697;75;944;-60
2023/10/04 10:49:41;;;;;;;;;;;22.70;55.40;;;;;;1558210;75;685;-59
2023/10/04 10:51:43;;;;;;;;;;;22.80;55.40;;;;;;1547519;75;1126;-57
2023/10/04 10:53:45;;;;;;;;;;;22.80;55.30;;;;;;1551382;75;766;-62
2023/10/04 10:55:47;;;;;;;;;;;22.80;55.20;;;;;;1548102;75;748;-59
2023/10/04 10:57:50;;;;;;;;;;;22.80;55.20;;;;;;1549722;75;1605;-61
2023/10/04 10:59:56;;;;;;;;;;;22.80;55.20;;;;;;1552542;75;714;-59
2023/10/04 11:01:57;;;;;;;;;;;22.70;55.20;;;;;;1554730;75;1318;-60
2023/10/04 11:04:01;;;;;;;;;;;22.70;55.10;;;;;;1558632;75;738;-58
2023/10/04 11:06:03;;;;;;;;;;;22.80;55.10;;;;;;1554005;75;1927;-62
2023/10/04 11:08:08;;;;;;;;;;;22.80;55.10;;;;;;1542498;75;725;-61
2023/10/04 11:10:12;;;;;;;;;;;22.70;55.10;;;;;;1552823;75;1527;-62
2023/10/04 11:12:13;;;;;;;;;;;22.70;55.00;;;;;;1549509;75;1127;-58
2023/10/04 11:14:18;;;;;;;;;;;22.70;54.90;;;;;;1551645;75;712;-60
2023/10/04 11:16:21;;;;;;;;;;;22.70;54.90;;;;;;1553002;75;856;-61
2023/10/04 11:18:28;;;;;;;;;;;22.80;55.00;;;;;;1553364;75;768;-63
2023/10/04 11:20:29;;;;;;;;;;;22.80;54.90;;;;;;1525761;75;1607;-58
2023/10/04 11:22:30;;;;;;;;;;;22.70;54.90;;;;;;1557704;75;1677;-59
2023/10/04 11:24:32;;;;;;;;;;;22.80;54.70;;;;;;1550105;75;1252;-59
2023/10/04 11:26:36;;;;;;;;;;;22.80;54.90;;;;;;1553684;75;1910;-60
2023/10/04 11:28:37;;;;;;;;;;;22.70;54.90;;;;;;1544807;75;2272;-59
2023/10/04 11:30:39;;;;;;;;;;;22.70;54.70;;;;;;1550495;75;1243;-60
2023/10/04 11:32:42;;;;;;;;;;;22.70;54.70;;;;;;1555105;75;1449;-59
2023/10/04 11:34:45;;;;;;;;;;;22.80;54.60;;;;;;1551338;75;1038;-59
2023/10/04 11:36:47;;;;;;;;;;;22.70;54.60;;;;;;1551872;75;1549;-60
2023/10/04 11:38:51;;;;;;;;;;;22.70;54.60;;;;;;1556433;75;1526;-59
2023/10/04 11:40:53;;;;;;;;;;;22.70;54.60;;;;;;1553261;75;1246;-62
2023/10/04 11:42:58;;;;;;;;;;;22.70;54.70;;;;;;1550558;75;1342;-62
2023/10/04 11:45:00;;;;;;;;;;;22.70;54.70;;;;;;1550338;75;1299;-61
2023/10/04 11:47:08;;;;;;;;;;;22.70;54.70;;;;;;1550282;75;1926;-60
2023/10/04 11:49:11;;;;;;;;;;;22.70;54.70;;;;;;1550086;75;1648;-61
2023/10/04 11:51:33;;;;;;;;;;;22.80;54.70;;;;;;1557350;75;1520;-59
2023/10/04 11:53:42;;;;;;;;;;;22.70;54.70;;;;;;1522946;76;1533;-62
2023/10/04 11:55:40;;;;;;;;;;;22.80;54.70;;;;;;1521882;75;1794;-59
2023/10/04 11:57:42;;;;;;;;;;;22.70;54.70;;;;;;1533678;75;1539;-60
2023/10/04 11:59:44;;;;;;;;;;;22.80;54.70;;;;;;1529913;76;1402;-61
2023/10/04 12:01:47;;;;;;;;;;;22.80;54.70;;;;;;1523896;76;1599;-59
2023/10/04 12:03:56;;;;;;;;;;;22.70;54.70;;;;;;1522239;77;1544;-60
2023/10/04 12:05:59;;;;;;;;;;;22.70;54.70;;;;;;1531843;77;1931;-60
2023/10/04 12:08:01;;;;;;;;;;;22.70;54.80;;;;;;1521234;76;1562;-63
2023/10/04 12:10:03;;;;;;;;;;;22.70;54.70;;;;;;1533186;77;1228;-61
2023/10/04 12:12:08;;;;;;;;;;;22.70;54.50;;;;;;1518901;77;1175;-61